sensor_id;sensor_type;location;lat;lon;timestamp;temperature;humidity
34406;DHT22;20658;45.630;8.886;2023-05-01T00:00:16;14.10;99.90
34406;DHT22;20658;45.630;8.886;2023-05-01T00:02:49;13.80;99.70
34406;DHT22;20658;45.630;8.886;2023-05-01T00:05:23;14.00;99.80
34406;DHT22;20658;45.630;8.886;2023-05-01T00:07:58;14.00;99.80
34406;DHT22;20658;45.630;8.886;2023-05-01T00:10:34;13.80;99.70
34406;DHT22;20658;45.630;8.886;2023-05-01T00:13:02;13.80;99.70
34406;DHT22;20658;45.630;8.886;2023-05-01T00:15:36;13.80;99.70
34406;DHT22;20658;45.630;8.886;2023-05-01T00:18:13;13.80;99.70
34406;DHT22;20658;45.630;8.886;2023-05-01T00:20:47;13.80;99.50
34406;DHT22;20658;45.630;8.886;2023-05-01T00:23:22;13.80;99.50
34406;DHT22;20658;45.630;8.886;2023-05-01T00:25:55;13.80;99.40
34406;DHT22;20658;45.630;8.886;2023-05-01T00:28:28;14.00;99.40
34406;DHT22;20658;45.630;8.886;2023-05-01T00:30:57;13.80;99.30
34406;DHT22;20658;45.630;8.886;2023-05-01T00:33:25;13.80;99.10
34406;DHT22;20658;45.630;8.886;2023-05-01T00:35:58;13.80;99.20
34406;DHT22;20658;45.630;8.886;2023-05-01T00:38:33;14.00;99.30
34406;DHT22;20658;45.630;8.886;2023-05-01T00:41:06;13.80;99.30
34406;DHT22;20658;45.630;8.886;2023-05-01T00:43:40;13.80;99.30
34406;DHT22;20658;45.630;8.886;2023-05-01T00:46:09;13.80;99.20
34406;DHT22;20658;45.630;8.886;2023-05-01T00:48:43;13.80;99.20
34406;DHT22;20658;45.630;8.886;2023-05-01T00:51:16;13.80;99.20
34406;DHT22;20658;45.630;8.886;2023-05-01T00:53:52;13.80;99.00
34406;DHT22;20658;45.630;8.886;2023-05-01T00:56:26;13.80;99.20
34406;DHT22;20658;45.630;8.886;2023-05-01T00:59:00;13.90;99.40
34406;DHT22;20658;45.630;8.886;2023-05-01T01:01:33;13.80;99.20
34406;DHT22;20658;45.630;8.886;2023-05-01T01:04:02;13.80;99.20
34406;DHT22;20658;45.630;8.886;2023-05-01T01:06:41;14.00;99.30
34406;DHT22;20658;45.630;8.886;2023-05-01T01:09:27;13.90;99.40
34406;DHT22;20658;45.630;8.886;2023-05-01T01:12:09;13.80;99.00
34406;DHT22;20658;45.630;8.886;2023-05-01T01:14:52;13.90;99.30
34406;DHT22;20658;45.630;8.886;2023-05-01T01:17:32;13.80;99.20
34406;DHT22;20658;45.630;8.886;2023-05-01T01:20:30;13.80;99.20
34406;DHT22;20658;45.630;8.886;2023-05-01T01:26:45;13.80;99.30
34406;DHT22;20658;45.630;8.886;2023-05-01T01:29:50;13.80;99.40
34406;DHT22;20658;45.630;8.886;2023-05-01T01:32:54;13.80;99.70
34406;DHT22;20658;45.630;8.886;2023-05-01T01:35:30;13.80;99.70
34406;DHT22;20658;45.630;8.886;2023-05-01T01:38:06;13.70;99.70
34406;DHT22;20658;45.630;8.886;2023-05-01T01:40:48;13.80;99.70
34406;DHT22;20658;45.630;8.886;2023-05-01T01:43:34;13.70;99.70
34406;DHT22;20658;45.630;8.886;2023-05-01T01:46:10;13.70;99.70
34406;DHT22;20658;45.630;8.886;2023-05-01T01:48:41;13.70;99.70
34406;DHT22;20658;45.630;8.886;2023-05-01T01:51:18;13.70;99.70
34406;DHT22;20658;45.630;8.886;2023-05-01T01:53:56;13.70;99.90
34406;DHT22;20658;45.630;8.886;2023-05-01T01:56:31;14.00;99.90
34406;DHT22;20658;45.630;8.886;2023-05-01T01:59:06;13.70;99.90
34406;DHT22;20658;45.630;8.886;2023-05-01T02:01:40;13.60;99.80
34406;DHT22;20658;45.630;8.886;2023-05-01T02:04:15;13.70;99.90
34406;DHT22;20658;45.630;8.886;2023-05-01T02:06:52;13.70;99.90
34406;DHT22;20658;45.630;8.886;2023-05-01T02:09:23;13.70;99.90
34406;DHT22;20658;45.630;8.886;2023-05-01T02:11:58;13.70;99.80
34406;DHT22;20658;45.630;8.886;2023-05-01T02:14:27;13.80;99.90
34406;DHT22;20658;45.630;8.886;2023-05-01T02:17:01;13.60;99.90
34406;DHT22;20658;45.630;8.886;2023-05-01T02:19:37;13.70;99.90
34406;DHT22;20658;45.630;8.886;2023-05-01T02:22:09;13.60;99.90
34406;DHT22;20658;45.630;8.886;2023-05-01T02:24:43;13.70;99.90
34406;DHT22;20658;45.630;8.886;2023-05-01T02:27:20;13.70;99.90
34406;DHT22;20658;45.630;8.886;2023-05-01T02:29:55;13.70;99.90
34406;DHT22;20658;45.630;8.886;2023-05-01T02:32:29;13.80;99.90
34406;DHT22;20658;45.630;8.886;2023-05-01T02:35:03;13.60;99.90
34406;DHT22;20658;45.630;8.886;2023-05-01T02:37:39;13.50;99.90
34406;DHT22;20658;45.630;8.886;2023-05-01T02:40:13;13.60;99.90
34406;DHT22;20658;45.630;8.886;2023-05-01T02:42:48;13.60;99.90
34406;DHT22;20658;45.630;8.886;2023-05-01T02:45:24;13.60;99.90
34406;DHT22;20658;45.630;8.886;2023-05-01T02:47:58;13.60;99.90
34406;DHT22;20658;45.630;8.886;2023-05-01T02:50:33;13.60;99.90
34406;DHT22;20658;45.630;8.886;2023-05-01T02:53:08;13.90;99.90
34406;DHT22;20658;45.630;8.886;2023-05-01T02:55:49;13.70;99.90
34406;DHT22;20658;45.630;8.886;2023-05-01T02:58:23;13.50;99.90
34406;DHT22;20658;45.630;8.886;2023-05-01T03:00:51;13.50;99.90
34406;DHT22;20658;45.630;8.886;2023-05-01T03:03:25;13.70;99.90
34406;DHT22;20658;45.630;8.886;2023-05-01T03:05:53;13.70;99.90
34406;DHT22;20658;45.630;8.886;2023-05-01T03:08:28;13.50;99.90
34406;DHT22;20658;45.630;8.886;2023-05-01T03:10:56;13.50;99.90
34406;DHT22;20658;45.630;8.886;2023-05-01T03:13:29;13.50;99.90
34406;DHT22;20658;45.630;8.886;2023-05-01T03:15:58;13.50;99.90
34406;DHT22;20658;45.630;8.886;2023-05-01T03:18:31;13.50;99.90
34406;DHT22;20658;45.630;8.886;2023-05-01T03:21:04;13.50;99.90
34406;DHT22;20658;45.630;8.886;2023-05-01T03:23:39;13.40;99.90
34406;DHT22;20658;45.630;8.886;2023-05-01T03:26:12;13.40;99.90
34406;DHT22;20658;45.630;8.886;2023-05-01T03:28:41;13.60;99.90
34406;DHT22;20658;45.630;8.886;2023-05-01T03:31:10;13.40;99.90
34406;DHT22;20658;45.630;8.886;2023-05-01T03:33:43;13.40;99.90
34406;DHT22;20658;45.630;8.886;2023-05-01T03:36:16;13.50;99.90
34406;DHT22;20658;45.630;8.886;2023-05-01T03:38:52;13.30;99.90
34406;DHT22;20658;45.630;8.886;2023-05-01T03:41:53;13.30;99.90
34406;DHT22;20658;45.630;8.886;2023-05-01T03:44:24;13.30;99.90
34406;DHT22;20658;45.630;8.886;2023-05-01T03:46:53;13.30;99.90
34406;DHT22;20658;45.630;8.886;2023-05-01T03:49:25;13.40;99.90
34406;DHT22;20658;45.630;8.886;2023-05-01T03:51:54;13.30;99.90
34406;DHT22;20658;45.630;8.886;2023-05-01T03:54:25;13.30;99.90
34406;DHT22;20658;45.630;8.886;2023-05-01T03:57:13;13.20;99.90
34406;DHT22;20658;45.630;8.886;2023-05-01T03:59:46;13.30;99.90
34406;DHT22;20658;45.630;8.886;2023-05-01T04:02:15;13.20;99.90
34406;DHT22;20658;45.630;8.886;2023-05-01T04:04:49;13.20;99.90
34406;DHT22;20658;45.630;8.886;2023-05-01T04:07:23;13.20;99.90
34406;DHT22;20658;45.630;8.886;2023-05-01T04:09:53;13.20;99.90
34406;DHT22;20658;45.630;8.886;2023-05-01T04:12:26;13.50;99.90
34406;DHT22;20658;45.630;8.886;2023-05-01T04:14:59;13.20;99.90
34406;DHT22;20658;45.630;8.886;2023-05-01T04:17:29;13.20;99.90
34406;DHT22;20658;45.630;8.886;2023-05-01T04:19:57;13.20;99.90
34406;DHT22;20658;45.630;8.886;2023-05-01T04:22:31;13.30;99.90
34406;DHT22;20658;45.630;8.886;2023-05-01T04:25:01;13.20;99.90
34406;DHT22;20658;45.630;8.886;2023-05-01T04:27:30;13.20;99.90
34406;DHT22;20658;45.630;8.886;2023-05-01T04:30:05;13.20;99.90
34406;DHT22;20658;45.630;8.886;2023-05-01T04:32:34;13.20;99.90
34406;DHT22;20658;45.630;8.886;2023-05-01T04:35:08;13.20;99.90
34406;DHT22;20658;45.630;8.886;2023-05-01T04:37:41;13.20;99.90
34406;DHT22;20658;45.630;8.886;2023-05-01T04:40:16;13.10;99.90
34406;DHT22;20658;45.630;8.886;2023-05-01T04:42:44;13.20;99.90
34406;DHT22;20658;45.630;8.886;2023-05-01T04:45:17;13.00;99.90
34406;DHT22;20658;45.630;8.886;2023-05-01T04:47:46;13.10;99.90
34406;DHT22;20658;45.630;8.886;2023-05-01T04:50:14;13.10;99.90
34406;DHT22;20658;45.630;8.886;2023-05-01T04:52:48;13.10;99.90
34406;DHT22;20658;45.630;8.886;2023-05-01T04:55:18;13.10;99.90
34406;DHT22;20658;45.630;8.886;2023-05-01T04:58:00;13.10;99.90
34406;DHT22;20658;45.630;8.886;2023-05-01T05:00:35;13.10;99.90
34406;DHT22;20658;45.630;8.886;2023-05-01T05:03:14;13.10;99.90
34406;DHT22;20658;45.630;8.886;2023-05-01T05:05:44;13.10;99.90
34406;DHT22;20658;45.630;8.886;2023-05-01T05:08:14;13.10;99.90
34406;DHT22;20658;45.630;8.886;2023-05-01T05:11:00;13.30;99.90
34406;DHT22;20658;45.630;8.886;2023-05-01T05:14:00;13.10;99.90
34406;DHT22;20658;45.630;8.886;2023-05-01T05:16:33;13.10;99.90
34406;DHT22;20658;45.630;8.886;2023-05-01T05:19:07;13.10;99.90
34406;DHT22;20658;45.630;8.886;2023-05-01T05:21:39;13.10;99.90
34406;DHT22;20658;45.630;8.886;2023-05-01T05:24:13;13.00;99.90
34406;DHT22;20658;45.630;8.886;2023-05-01T05:26:42;13.00;99.90
34406;DHT22;20658;45.630;8.886;2023-05-01T05:29:16;13.10;99.90
34406;DHT22;20658;45.630;8.886;2023-05-01T05:31:49;13.10;99.90
34406;DHT22;20658;45.630;8.886;2023-05-01T05:34:22;13.10;99.90
34406;DHT22;20658;45.630;8.886;2023-05-01T05:36:51;13.10;99.90
34406;DHT22;20658;45.630;8.886;2023-05-01T05:39:24;13.10;99.90
34406;DHT22;20658;45.630;8.886;2023-05-01T05:41:59;13.10;99.90
34406;DHT22;20658;45.630;8.886;2023-05-01T05:44:34;13.10;99.90
34406;DHT22;20658;45.630;8.886;2023-05-01T05:47:08;13.10;99.90
34406;DHT22;20658;45.630;8.886;2023-05-01T05:49:41;13.10;99.90
34406;DHT22;20658;45.630;8.886;2023-05-01T05:52:10;13.10;99.90
34406;DHT22;20658;45.630;8.886;2023-05-01T05:54:38;13.20;99.90
34406;DHT22;20658;45.630;8.886;2023-05-01T05:57:14;13.20;99.90
34406;DHT22;20658;45.630;8.886;2023-05-01T05:59:47;13.20;99.90
34406;DHT22;20658;45.630;8.886;2023-05-01T06:02:19;13.20;99.90
34406;DHT22;20658;45.630;8.886;2023-05-01T06:04:52;13.20;99.90
34406;DHT22;20658;45.630;8.886;2023-05-01T06:07:27;13.20;99.90
34406;DHT22;20658;45.630;8.886;2023-05-01T06:09:56;13.20;99.90
34406;DHT22;20658;45.630;8.886;2023-05-01T06:12:30;13.30;99.90
34406;DHT22;20658;45.630;8.886;2023-05-01T06:15:00;13.40;99.90
34406;DHT22;20658;45.630;8.886;2023-05-01T06:17:29;13.60;99.90
34406;DHT22;20658;45.630;8.886;2023-05-01T06:20:03;13.40;99.90
34406;DHT22;20658;45.630;8.886;2023-05-01T06:22:32;13.40;99.90
34406;DHT22;20658;45.630;8.886;2023-05-01T06:25:15;13.50;99.90
34406;DHT22;20658;45.630;8.886;2023-05-01T06:27:45;13.50;99.90
34406;DHT22;20658;45.630;8.886;2023-05-01T06:30:13;13.60;99.90
34406;DHT22;20658;45.630;8.886;2023-05-01T06:32:42;13.80;99.90
34406;DHT22;20658;45.630;8.886;2023-05-01T06:35:16;14.40;99.90
34406;DHT22;20658;45.630;8.886;2023-05-01T06:37:44;14.00;99.90
34406;DHT22;20658;45.630;8.886;2023-05-01T06:40:13;14.10;99.90
34406;DHT22;20658;45.630;8.886;2023-05-01T06:42:41;14.30;99.90
34406;DHT22;20658;45.630;8.886;2023-05-01T06:45:16;14.40;99.90
34406;DHT22;20658;45.630;8.886;2023-05-01T06:47:49;14.60;99.90
34406;DHT22;20658;45.630;8.886;2023-05-01T06:50:23;14.50;99.90
34406;DHT22;20658;45.630;8.886;2023-05-01T06:52:58;14.60;99.90
34406;DHT22;20658;45.630;8.886;2023-05-01T06:55:31;14.60;99.90
34406;DHT22;20658;45.630;8.886;2023-05-01T06:58:04;14.70;99.90
34406;DHT22;20658;45.630;8.886;2023-05-01T07:00:43;14.60;99.90
34406;DHT22;20658;45.630;8.886;2023-05-01T07:03:16;14.60;99.90
34406;DHT22;20658;45.630;8.886;2023-05-01T07:05:49;14.70;99.90
34406;DHT22;20658;45.630;8.886;2023-05-01T07:08:18;14.80;99.90
34406;DHT22;20658;45.630;8.886;2023-05-01T07:10:54;14.60;99.90
34406;DHT22;20658;45.630;8.886;2023-05-01T07:13:37;14.60;99.90
34406;DHT22;20658;45.630;8.886;2023-05-01T07:16:16;14.70;99.90
34406;DHT22;20658;45.630;8.886;2023-05-01T07:18:44;14.70;99.90
34406;DHT22;20658;45.630;8.886;2023-05-01T07:21:12;14.80;99.90
34406;DHT22;20658;45.630;8.886;2023-05-01T07:23:41;14.90;99.90
34406;DHT22;20658;45.630;8.886;2023-05-01T07:26:15;14.90;99.90
34406;DHT22;20658;45.630;8.886;2023-05-01T07:28:43;14.90;99.90
34406;DHT22;20658;45.630;8.886;2023-05-01T07:31:12;14.90;99.90
34406;DHT22;20658;45.630;8.886;2023-05-01T07:33:42;14.90;99.90
34406;DHT22;20658;45.630;8.886;2023-05-01T07:36:10;14.80;99.90
34406;DHT22;20658;45.630;8.886;2023-05-01T07:38:43;14.90;99.90
34406;DHT22;20658;45.630;8.886;2023-05-01T07:41:12;14.90;99.90
34406;DHT22;20658;45.630;8.886;2023-05-01T07:43:45;14.90;99.90
34406;DHT22;20658;45.630;8.886;2023-05-01T07:46:13;15.00;99.90
34406;DHT22;20658;45.630;8.886;2023-05-01T07:48:44;14.90;99.90
34406;DHT22;20658;45.630;8.886;2023-05-01T07:51:12;14.90;99.90
34406;DHT22;20658;45.630;8.886;2023-05-01T07:53:46;15.40;99.90
34406;DHT22;20658;45.630;8.886;2023-05-01T07:56:20;15.30;99.90
34406;DHT22;20658;45.630;8.886;2023-05-01T07:58:49;15.10;99.40
34406;DHT22;20658;45.630;8.886;2023-05-01T08:01:17;15.20;99.50
34406;DHT22;20658;45.630;8.886;2023-05-01T08:03:48;15.20;98.70
34406;DHT22;20658;45.630;8.886;2023-05-01T08:06:21;15.30;98.70
34406;DHT22;20658;45.630;8.886;2023-05-01T08:08:50;15.30;98.50
34406;DHT22;20658;45.630;8.886;2023-05-01T08:11:18;15.30;98.40
34406;DHT22;20658;45.630;8.886;2023-05-01T08:13:47;15.20;97.80
34406;DHT22;20658;45.630;8.886;2023-05-01T08:16:20;15.30;98.70
34406;DHT22;20658;45.630;8.886;2023-05-01T08:18:55;15.30;99.40
34406;DHT22;20658;45.630;8.886;2023-05-01T08:21:29;15.40;99.20
34406;DHT22;20658;45.630;8.886;2023-05-01T08:23:57;15.50;99.40
34406;DHT22;20658;45.630;8.886;2023-05-01T08:26:30;15.50;99.20
34406;DHT22;20658;45.630;8.886;2023-05-01T08:29:03;15.50;98.90
34406;DHT22;20658;45.630;8.886;2023-05-01T08:31:32;15.60;98.60
34406;DHT22;20658;45.630;8.886;2023-05-01T08:34:04;15.60;98.10
34406;DHT22;20658;45.630;8.886;2023-05-01T08:36:38;15.70;98.10
34406;DHT22;20658;45.630;8.886;2023-05-01T08:39:11;16.00;97.80
34406;DHT22;20658;45.630;8.886;2023-05-01T08:41:46;16.00;97.00
34406;DHT22;20658;45.630;8.886;2023-05-01T08:44:19;16.10;97.20
34406;DHT22;20658;45.630;8.886;2023-05-01T08:47:03;16.30;95.20
34406;DHT22;20658;45.630;8.886;2023-05-01T08:49:43;16.20;95.60
34406;DHT22;20658;45.630;8.886;2023-05-01T08:52:19;16.20;94.30
34406;DHT22;20658;45.630;8.886;2023-05-01T08:54:49;16.40;93.70
34406;DHT22;20658;45.630;8.886;2023-05-01T08:57:25;16.50;92.90
34406;DHT22;20658;45.630;8.886;2023-05-01T08:59:55;16.60;91.30
34406;DHT22;20658;45.630;8.886;2023-05-01T09:02:29;16.70;90.50
34406;DHT22;20658;45.630;8.886;2023-05-01T09:05:00;16.70;87.50
34406;DHT22;20658;45.630;8.886;2023-05-01T09:07:34;16.70;85.40
34406;DHT22;20658;45.630;8.886;2023-05-01T09:10:09;16.60;83.40
34406;DHT22;20658;45.630;8.886;2023-05-01T09:12:46;16.80;85.10
34406;DHT22;20658;45.630;8.886;2023-05-01T09:15:23;17.00;84.10
34406;DHT22;20658;45.630;8.886;2023-05-01T09:17:59;17.20;79.00
34406;DHT22;20658;45.630;8.886;2023-05-01T09:20:35;17.30;78.00
34406;DHT22;20658;45.630;8.886;2023-05-01T09:23:10;17.30;77.40
34406;DHT22;20658;45.630;8.886;2023-05-01T09:25:44;17.30;77.50
34406;DHT22;20658;45.630;8.886;2023-05-01T09:28:17;17.50;78.60
34406;DHT22;20658;45.630;8.886;2023-05-01T09:30:51;17.30;76.60
34406;DHT22;20658;45.630;8.886;2023-05-01T09:33:24;17.20;77.10
34406;DHT22;20658;45.630;8.886;2023-05-01T09:35:59;17.30;77.70
34406;DHT22;20658;45.630;8.886;2023-05-01T09:38:32;17.20;74.10
34406;DHT22;20658;45.630;8.886;2023-05-01T09:41:05;17.10;76.00
34406;DHT22;20658;45.630;8.886;2023-05-01T09:43:40;17.20;73.80
34406;DHT22;20658;45.630;8.886;2023-05-01T09:46:14;17.20;71.70
34406;DHT22;20658;45.630;8.886;2023-05-01T09:48:55;17.20;70.80
34406;DHT22;20658;45.630;8.886;2023-05-01T09:51:31;17.20;70.20
34406;DHT22;20658;45.630;8.886;2023-05-01T09:54:17;17.30;69.60
34406;DHT22;20658;45.630;8.886;2023-05-01T09:56:51;17.20;65.20
34406;DHT22;20658;45.630;8.886;2023-05-01T09:59:24;17.00;64.80
34406;DHT22;20658;45.630;8.886;2023-05-01T10:02:01;17.00;66.00
34406;DHT22;20658;45.630;8.886;2023-05-01T10:04:35;17.10;66.70
34406;DHT22;20658;45.630;8.886;2023-05-01T10:07:13;17.20;65.40
34406;DHT22;20658;45.630;8.886;2023-05-01T10:09:46;17.00;65.50
34406;DHT22;20658;45.630;8.886;2023-05-01T10:12:22;17.00;68.00
34406;DHT22;20658;45.630;8.886;2023-05-01T10:14:57;17.10;69.10
34406;DHT22;20658;45.630;8.886;2023-05-01T10:17:30;16.90;69.10
34406;DHT22;20658;45.630;8.886;2023-05-01T10:20:00;16.80;68.50
34406;DHT22;20658;45.630;8.886;2023-05-01T10:22:35;16.80;69.30
34406;DHT22;20658;45.630;8.886;2023-05-01T10:25:09;16.80;71.30
34406;DHT22;20658;45.630;8.886;2023-05-01T10:27:44;16.90;71.60
34406;DHT22;20658;45.630;8.886;2023-05-01T10:30:17;16.90;72.50
34406;DHT22;20658;45.630;8.886;2023-05-01T10:32:52;16.90;72.50
34406;DHT22;20658;45.630;8.886;2023-05-01T10:35:28;16.90;73.20
34406;DHT22;20658;45.630;8.886;2023-05-01T10:38:12;17.10;73.50
34406;DHT22;20658;45.630;8.886;2023-05-01T10:40:50;17.20;72.50
34406;DHT22;20658;45.630;8.886;2023-05-01T10:43:25;17.20;69.00
34406;DHT22;20658;45.630;8.886;2023-05-01T10:46:26;17.10;68.10
34406;DHT22;20658;45.630;8.886;2023-05-01T10:49:00;16.90;75.00
34406;DHT22;20658;45.630;8.886;2023-05-01T10:51:57;16.70;83.50
34406;DHT22;20658;45.630;8.886;2023-05-01T10:54:32;16.40;88.60
34406;DHT22;20658;45.630;8.886;2023-05-01T10:57:05;16.20;90.60
34406;DHT22;20658;45.630;8.886;2023-05-01T11:00:09;16.30;91.60
34406;DHT22;20658;45.630;8.886;2023-05-01T11:02:43;16.20;92.80
34406;DHT22;20658;45.630;8.886;2023-05-01T11:05:16;16.10;93.70
34406;DHT22;20658;45.630;8.886;2023-05-01T11:08:27;16.10;92.60
34406;DHT22;20658;45.630;8.886;2023-05-01T11:14:22;16.10;94.80
34406;DHT22;20658;45.630;8.886;2023-05-01T11:16:55;16.40;94.70
34406;DHT22;20658;45.630;8.886;2023-05-01T11:19:44;16.50;94.80
34406;DHT22;20658;45.630;8.886;2023-05-01T11:22:21;16.50;94.80
34406;DHT22;20658;45.630;8.886;2023-05-01T11:24:55;16.30;95.40
34406;DHT22;20658;45.630;8.886;2023-05-01T11:27:30;16.00;95.70
34406;DHT22;20658;45.630;8.886;2023-05-01T11:30:04;15.90;95.60
34406;DHT22;20658;45.630;8.886;2023-05-01T11:32:42;15.80;96.70
34406;DHT22;20658;45.630;8.886;2023-05-01T11:35:19;15.90;96.90
34406;DHT22;20658;45.630;8.886;2023-05-01T11:37:52;16.10;96.40
34406;DHT22;20658;45.630;8.886;2023-05-01T11:40:28;15.80;95.60
34406;DHT22;20658;45.630;8.886;2023-05-01T11:43:04;15.70;96.10
34406;DHT22;20658;45.630;8.886;2023-05-01T11:45:38;15.60;96.80
34406;DHT22;20658;45.630;8.886;2023-05-01T11:48:13;15.80;97.50
34406;DHT22;20658;45.630;8.886;2023-05-01T11:50:47;16.00;95.70
34406;DHT22;20658;45.630;8.886;2023-05-01T11:53:21;16.10;94.90
34406;DHT22;20658;45.630;8.886;2023-05-01T11:55:54;16.40;94.20
34406;DHT22;20658;45.630;8.886;2023-05-01T11:58:34;16.40;93.30
34406;DHT22;20658;45.630;8.886;2023-05-01T12:01:08;16.50;93.20
34406;DHT22;20658;45.630;8.886;2023-05-01T12:03:43;16.70;91.30
34406;DHT22;20658;45.630;8.886;2023-05-01T12:06:17;16.90;89.70
34406;DHT22;20658;45.630;8.886;2023-05-01T12:08:50;17.40;88.10
34406;DHT22;20658;45.630;8.886;2023-05-01T12:11:24;17.40;86.20
34406;DHT22;20658;45.630;8.886;2023-05-01T12:13:59;17.40;85.90
34406;DHT22;20658;45.630;8.886;2023-05-01T12:16:33;17.80;84.00
34406;DHT22;20658;45.630;8.886;2023-05-01T12:19:07;17.80;83.10
34406;DHT22;20658;45.630;8.886;2023-05-01T12:21:40;17.80;83.40
34406;DHT22;20658;45.630;8.886;2023-05-01T12:24:15;17.70;84.20
34406;DHT22;20658;45.630;8.886;2023-05-01T12:26:58;17.70;84.70
34406;DHT22;20658;45.630;8.886;2023-05-01T12:29:44;17.40;83.50
34406;DHT22;20658;45.630;8.886;2023-05-01T12:32:19;17.60;84.60
34406;DHT22;20658;45.630;8.886;2023-05-01T12:35:12;17.50;83.40
34406;DHT22;20658;45.630;8.886;2023-05-01T12:37:46;17.40;83.10
34406;DHT22;20658;45.630;8.886;2023-05-01T12:40:19;17.60;81.70
34406;DHT22;20658;45.630;8.886;2023-05-01T12:42:54;18.00;81.30
34406;DHT22;20658;45.630;8.886;2023-05-01T12:45:25;18.30;79.90
34406;DHT22;20658;45.630;8.886;2023-05-01T12:47:58;18.20;76.70
34406;DHT22;20658;45.630;8.886;2023-05-01T12:50:35;18.10;74.60
34406;DHT22;20658;45.630;8.886;2023-05-01T12:53:04;18.20;74.10
34406;DHT22;20658;45.630;8.886;2023-05-01T12:55:45;18.10;71.70
34406;DHT22;20658;45.630;8.886;2023-05-01T12:58:19;17.90;71.70
34406;DHT22;20658;45.630;8.886;2023-05-01T13:00:54;18.00;71.40
34406;DHT22;20658;45.630;8.886;2023-05-01T13:03:29;17.80;67.30
34406;DHT22;20658;45.630;8.886;2023-05-01T13:06:03;17.80;67.90
34406;DHT22;20658;45.630;8.886;2023-05-01T13:08:38;17.60;68.60
34406;DHT22;20658;45.630;8.886;2023-05-01T13:11:13;17.60;70.40
34406;DHT22;20658;45.630;8.886;2023-05-01T13:13:48;17.70;68.60
34406;DHT22;20658;45.630;8.886;2023-05-01T13:16:23;17.10;69.50
34406;DHT22;20658;45.630;8.886;2023-05-01T13:18:58;17.10;69.70
34406;DHT22;20658;45.630;8.886;2023-05-01T13:21:31;16.90;69.80
34406;DHT22;20658;45.630;8.886;2023-05-01T13:24:05;16.90;70.10
34406;DHT22;20658;45.630;8.886;2023-05-01T13:26:38;16.70;70.70
34406;DHT22;20658;45.630;8.886;2023-05-01T13:29:13;16.70;71.40
34406;DHT22;20658;45.630;8.886;2023-05-01T13:31:49;16.70;71.10
34406;DHT22;20658;45.630;8.886;2023-05-01T13:34:28;16.80;71.60
34406;DHT22;20658;45.630;8.886;2023-05-01T13:37:02;16.80;71.10
34406;DHT22;20658;45.630;8.886;2023-05-01T13:39:35;16.90;71.60
34406;DHT22;20658;45.630;8.886;2023-05-01T13:42:11;16.80;71.70
34406;DHT22;20658;45.630;8.886;2023-05-01T13:44:50;16.90;72.20
34406;DHT22;20658;45.630;8.886;2023-05-01T13:47:26;16.90;72.10
34406;DHT22;20658;45.630;8.886;2023-05-01T13:49:59;16.90;71.70
34406;DHT22;20658;45.630;8.886;2023-05-01T13:52:40;17.10;71.60
34406;DHT22;20658;45.630;8.886;2023-05-01T13:55:14;16.90;71.80
34406;DHT22;20658;45.630;8.886;2023-05-01T13:57:49;17.00;72.20
34406;DHT22;20658;45.630;8.886;2023-05-01T14:00:23;17.20;72.30
34406;DHT22;20658;45.630;8.886;2023-05-01T14:02:57;17.30;71.80
34406;DHT22;20658;45.630;8.886;2023-05-01T14:05:26;17.40;71.00
34406;DHT22;20658;45.630;8.886;2023-05-01T14:08:00;17.20;70.70
34406;DHT22;20658;45.630;8.886;2023-05-01T14:10:33;17.20;71.70
34406;DHT22;20658;45.630;8.886;2023-05-01T14:13:06;17.40;70.60
34406;DHT22;20658;45.630;8.886;2023-05-01T14:15:40;17.40;71.20
34406;DHT22;20658;45.630;8.886;2023-05-01T14:18:13;17.40;70.30
34406;DHT22;20658;45.630;8.886;2023-05-01T14:20:48;17.30;70.30
34406;DHT22;20658;45.630;8.886;2023-05-01T14:23:21;17.30;69.50
34406;DHT22;20658;45.630;8.886;2023-05-01T14:25:50;17.30;70.20
34406;DHT22;20658;45.630;8.886;2023-05-01T14:28:24;17.40;69.90
34406;DHT22;20658;45.630;8.886;2023-05-01T14:30:57;17.20;69.20
34406;DHT22;20658;45.630;8.886;2023-05-01T14:33:32;17.20;70.00
34406;DHT22;20658;45.630;8.886;2023-05-01T14:36:05;17.10;70.20
34406;DHT22;20658;45.630;8.886;2023-05-01T14:38:34;17.30;70.30
34406;DHT22;20658;45.630;8.886;2023-05-01T14:41:11;17.40;68.80
34406;DHT22;20658;45.630;8.886;2023-05-01T14:43:44;17.50;69.50
34406;DHT22;20658;45.630;8.886;2023-05-01T14:46:27;17.60;68.90
34406;DHT22;20658;45.630;8.886;2023-05-01T14:49:03;17.60;68.50
34406;DHT22;20658;45.630;8.886;2023-05-01T14:51:32;17.40;69.00
34406;DHT22;20658;45.630;8.886;2023-05-01T14:54:08;17.40;68.90
34406;DHT22;20658;45.630;8.886;2023-05-01T14:56:42;17.20;68.70
34406;DHT22;20658;45.630;8.886;2023-05-01T14:59:10;17.30;69.40
34406;DHT22;20658;45.630;8.886;2023-05-01T15:01:44;17.40;69.30
34406;DHT22;20658;45.630;8.886;2023-05-01T15:04:18;17.40;69.40
34406;DHT22;20658;45.630;8.886;2023-05-01T15:06:52;17.60;69.00
34406;DHT22;20658;45.630;8.886;2023-05-01T15:09:25;17.50;67.70
34406;DHT22;20658;45.630;8.886;2023-05-01T15:11:58;17.30;68.40
34406;DHT22;20658;45.630;8.886;2023-05-01T15:14:32;17.30;68.50
34406;DHT22;20658;45.630;8.886;2023-05-01T15:17:00;17.20;68.10
34406;DHT22;20658;45.630;8.886;2023-05-01T15:19:35;17.10;68.20
34406;DHT22;20658;45.630;8.886;2023-05-01T15:22:09;17.00;68.80
34406;DHT22;20658;45.630;8.886;2023-05-01T15:24:42;17.00;68.00
34406;DHT22;20658;45.630;8.886;2023-05-01T15:27:16;16.90;69.10
34406;DHT22;20658;45.630;8.886;2023-05-01T15:29:49;16.60;69.40
34406;DHT22;20658;45.630;8.886;2023-05-01T15:32:22;16.40;69.70
34406;DHT22;20658;45.630;8.886;2023-05-01T15:34:52;16.50;69.70
34406;DHT22;20658;45.630;8.886;2023-05-01T15:37:27;16.40;68.70
34406;DHT22;20658;45.630;8.886;2023-05-01T15:40:02;16.50;68.10
34406;DHT22;20658;45.630;8.886;2023-05-01T15:42:36;16.50;68.40
34406;DHT22;20658;45.630;8.886;2023-05-01T15:45:10;16.60;68.40
34406;DHT22;20658;45.630;8.886;2023-05-01T15:47:44;16.30;68.70
34406;DHT22;20658;45.630;8.886;2023-05-01T15:50:18;16.20;69.60
34406;DHT22;20658;45.630;8.886;2023-05-01T15:52:53;16.20;70.30
34406;DHT22;20658;45.630;8.886;2023-05-01T15:55:22;16.30;70.70
34406;DHT22;20658;45.630;8.886;2023-05-01T15:57:55;16.50;71.30
34406;DHT22;20658;45.630;8.886;2023-05-01T16:00:28;16.40;71.20
34406;DHT22;20658;45.630;8.886;2023-05-01T16:03:03;16.30;72.30
34406;DHT22;20658;45.630;8.886;2023-05-01T16:05:38;16.30;73.00
34406;DHT22;20658;45.630;8.886;2023-05-01T16:08:11;16.30;74.00
34406;DHT22;20658;45.630;8.886;2023-05-01T16:10:45;16.50;73.30
34406;DHT22;20658;45.630;8.886;2023-05-01T16:13:18;16.30;73.60
34406;DHT22;20658;45.630;8.886;2023-05-01T16:15:46;16.20;73.30
34406;DHT22;20658;45.630;8.886;2023-05-01T16:18:23;16.10;73.50
34406;DHT22;20658;45.630;8.886;2023-05-01T16:20:58;16.00;74.10